sensor_id;sensor_type;location;lat;lon;timestamp;temperature;humidity
11597;DHT22;5854;48.072;16.286;2022-09-09T00:02:27;17.70;63.80
11597;DHT22;5854;48.072;16.286;2022-09-09T00:04:59;17.70;64.30
11597;DHT22;5854;48.072;16.286;2022-09-09T00:07:37;17.70;64.10
11597;DHT22;5854;48.072;16.286;2022-09-09T00:10:16;17.70;65.50
11597;DHT22;5854;48.072;16.286;2022-09-09T00:12:54;17.80;65.70
11597;DHT22;5854;48.072;16.286;2022-09-09T00:15:28;17.80;66.50
11597;DHT22;5854;48.072;16.286;2022-09-09T00:18:11;18.00;66.90
11597;DHT22;5854;48.072;16.286;2022-09-09T00:20:47;18.00;66.20
11597;DHT22;5854;48.072;16.286;2022-09-09T00:23:23;17.90;66.00
11597;DHT22;5854;48.072;16.286;2022-09-09T00:26:02;17.80;65.90
11597;DHT22;5854;48.072;16.286;2022-09-09T00:28:36;17.70;65.60
11597;DHT22;5854;48.072;16.286;2022-09-09T00:31:12;17.70;66.00
11597;DHT22;5854;48.072;16.286;2022-09-09T00:33:42;17.60;65.10
11597;DHT22;5854;48.072;16.286;2022-09-09T00:36:13;17.60;65.70
11597;DHT22;5854;48.072;16.286;2022-09-09T00:38:45;17.70;66.00
11597;DHT22;5854;48.072;16.286;2022-09-09T00:41:21;17.60;66.50
11597;DHT22;5854;48.072;16.286;2022-09-09T00:43:56;17.60;66.90
11597;DHT22;5854;48.072;16.286;2022-09-09T00:46:45;17.60;66.90
11597;DHT22;5854;48.072;16.286;2022-09-09T00:49:26;17.50;67.30
11597;DHT22;5854;48.072;16.286;2022-09-09T00:52:12;17.50;67.30
11597;DHT22;5854;48.072;16.286;2022-09-09T00:54:53;17.60;67.00
11597;DHT22;5854;48.072;16.286;2022-09-09T00:57:26;17.60;67.30
11597;DHT22;5854;48.072;16.286;2022-09-09T01:00:16;17.50;66.60
11597;DHT22;5854;48.072;16.286;2022-09-09T01:02:53;17.50;67.80
11597;DHT22;5854;48.072;16.286;2022-09-09T01:05:46;17.60;67.30
11597;DHT22;5854;48.072;16.286;2022-09-09T01:08:30;17.70;67.00
11597;DHT22;5854;48.072;16.286;2022-09-09T01:11:10;17.60;66.30
11597;DHT22;5854;48.072;16.286;2022-09-09T01:13:45;17.70;66.00
11597;DHT22;5854;48.072;16.286;2022-09-09T01:16:17;17.60;66.00
11597;DHT22;5854;48.072;16.286;2022-09-09T01:18:46;17.60;65.10
11597;DHT22;5854;48.072;16.286;2022-09-09T01:21:25;17.50;63.70
11597;DHT22;5854;48.072;16.286;2022-09-09T01:24:15;17.40;66.50
11597;DHT22;5854;48.072;16.286;2022-09-09T01:26:50;17.40;64.80
11597;DHT22;5854;48.072;16.286;2022-09-09T01:29:19;17.40;65.90
11597;DHT22;5854;48.072;16.286;2022-09-09T01:31:54;17.40;65.30
11597;DHT22;5854;48.072;16.286;2022-09-09T01:34:23;17.40;66.70
11597;DHT22;5854;48.072;16.286;2022-09-09T01:36:57;17.40;65.30
11597;DHT22;5854;48.072;16.286;2022-09-09T01:39:26;17.30;65.40
11597;DHT22;5854;48.072;16.286;2022-09-09T01:41:56;17.30;65.70
11597;DHT22;5854;48.072;16.286;2022-09-09T01:44:25;17.20;65.30
11597;DHT22;5854;48.072;16.286;2022-09-09T01:46:52;17.20;66.20
11597;DHT22;5854;48.072;16.286;2022-09-09T01:49:20;17.20;66.40
11597;DHT22;5854;48.072;16.286;2022-09-09T01:51:49;17.30;67.50
11597;DHT22;5854;48.072;16.286;2022-09-09T01:54:19;17.20;66.40
11597;DHT22;5854;48.072;16.286;2022-09-09T01:56:56;17.20;67.70
11597;DHT22;5854;48.072;16.286;2022-09-09T01:59:41;17.20;67.30
11597;DHT22;5854;48.072;16.286;2022-09-09T02:02:18;17.20;68.00
11597;DHT22;5854;48.072;16.286;2022-09-09T02:04:49;17.20;67.80
11597;DHT22;5854;48.072;16.286;2022-09-09T02:07:28;17.20;67.70
11597;DHT22;5854;48.072;16.286;2022-09-09T02:10:05;17.10;67.90
11597;DHT22;5854;48.072;16.286;2022-09-09T02:12:40;17.10;67.40
11597;DHT22;5854;48.072;16.286;2022-09-09T02:15:17;17.10;68.00
11597;DHT22;5854;48.072;16.286;2022-09-09T02:17:46;17.10;67.80
11597;DHT22;5854;48.072;16.286;2022-09-09T02:20:18;17.00;68.30
11597;DHT22;5854;48.072;16.286;2022-09-09T02:22:49;17.10;68.20
11597;DHT22;5854;48.072;16.286;2022-09-09T02:25:21;17.00;68.60
11597;DHT22;5854;48.072;16.286;2022-09-09T02:27:51;17.00;67.90
11597;DHT22;5854;48.072;16.286;2022-09-09T02:30:19;17.00;68.40
11597;DHT22;5854;48.072;16.286;2022-09-09T02:32:49;17.00;68.80
11597;DHT22;5854;48.072;16.286;2022-09-09T02:35:21;17.00;69.00
11597;DHT22;5854;48.072;16.286;2022-09-09T02:37:54;16.90;67.90
11597;DHT22;5854;48.072;16.286;2022-09-09T02:40:24;16.90;68.40
11597;DHT22;5854;48.072;16.286;2022-09-09T02:42:54;16.80;69.50
11597;DHT22;5854;48.072;16.286;2022-09-09T02:45:25;16.80;68.20
11597;DHT22;5854;48.072;16.286;2022-09-09T02:48:00;16.80;69.70
11597;DHT22;5854;48.072;16.286;2022-09-09T02:50:33;16.70;68.90
11597;DHT22;5854;48.072;16.286;2022-09-09T02:53:07;16.70;69.60
11597;DHT22;5854;48.072;16.286;2022-09-09T02:55:43;16.80;68.80
11597;DHT22;5854;48.072;16.286;2022-09-09T02:58:17;16.70;69.70
11597;DHT22;5854;48.072;16.286;2022-09-09T03:00:47;16.70;69.80
11597;DHT22;5854;48.072;16.286;2022-09-09T03:03:16;16.70;70.20
11597;DHT22;5854;48.072;16.286;2022-09-09T03:05:44;16.60;70.40
11597;DHT22;5854;48.072;16.286;2022-09-09T03:08:12;16.60;69.30
11597;DHT22;5854;48.072;16.286;2022-09-09T03:10:39;16.60;70.30
11597;DHT22;5854;48.072;16.286;2022-09-09T03:13:07;16.60;70.30
11597;DHT22;5854;48.072;16.286;2022-09-09T03:15:36;16.60;69.30
11597;DHT22;5854;48.072;16.286;2022-09-09T03:18:03;16.50;70.50
11597;DHT22;5854;48.072;16.286;2022-09-09T03:20:30;16.50;69.30
11597;DHT22;5854;48.072;16.286;2022-09-09T03:22:59;16.50;70.80
11597;DHT22;5854;48.072;16.286;2022-09-09T03:25:28;16.50;70.20
11597;DHT22;5854;48.072;16.286;2022-09-09T03:27:55;16.50;69.80
11597;DHT22;5854;48.072;16.286;2022-09-09T03:30:25;16.60;70.10
11597;DHT22;5854;48.072;16.286;2022-09-09T03:32:54;16.50;70.20
11597;DHT22;5854;48.072;16.286;2022-09-09T03:35:22;16.50;71.00
11597;DHT22;5854;48.072;16.286;2022-09-09T03:37:49;16.50;70.30
11597;DHT22;5854;48.072;16.286;2022-09-09T03:40:16;16.50;70.20
11597;DHT22;5854;48.072;16.286;2022-09-09T03:42:44;16.40;70.60
11597;DHT22;5854;48.072;16.286;2022-09-09T03:45:12;16.40;70.30
11597;DHT22;5854;48.072;16.286;2022-09-09T03:47:39;16.40;70.70
11597;DHT22;5854;48.072;16.286;2022-09-09T03:50:09;16.30;71.70
11597;DHT22;5854;48.072;16.286;2022-09-09T03:52:37;16.30;71.30
11597;DHT22;5854;48.072;16.286;2022-09-09T03:55:06;16.40;71.30
11597;DHT22;5854;48.072;16.286;2022-09-09T03:57:34;16.40;70.10
11597;DHT22;5854;48.072;16.286;2022-09-09T04:00:02;16.40;70.00
11597;DHT22;5854;48.072;16.286;2022-09-09T04:02:30;16.30;71.20
11597;DHT22;5854;48.072;16.286;2022-09-09T04:04:57;16.20;70.70
11597;DHT22;5854;48.072;16.286;2022-09-09T04:07:26;16.20;70.80
11597;DHT22;5854;48.072;16.286;2022-09-09T04:09:54;16.10;70.20
11597;DHT22;5854;48.072;16.286;2022-09-09T04:12:21;16.10;71.50
11597;DHT22;5854;48.072;16.286;2022-09-09T04:14:48;16.10;70.50
11597;DHT22;5854;48.072;16.286;2022-09-09T04:17:15;16.10;71.20
11597;DHT22;5854;48.072;16.286;2022-09-09T04:19:42;16.10;70.90
11597;DHT22;5854;48.072;16.286;2022-09-09T04:22:10;16.10;71.40
11597;DHT22;5854;48.072;16.286;2022-09-09T04:24:39;16.00;71.20
11597;DHT22;5854;48.072;16.286;2022-09-09T04:27:06;15.90;72.80
11597;DHT22;5854;48.072;16.286;2022-09-09T04:29:33;15.90;72.50
11597;DHT22;5854;48.072;16.286;2022-09-09T04:32:03;16.00;71.90
11597;DHT22;5854;48.072;16.286;2022-09-09T04:34:32;15.90;73.60
11597;DHT22;5854;48.072;16.286;2022-09-09T04:37:01;15.90;72.10
11597;DHT22;5854;48.072;16.286;2022-09-09T04:39:29;15.80;73.00
11597;DHT22;5854;48.072;16.286;2022-09-09T04:41:57;15.80;71.50
11597;DHT22;5854;48.072;16.286;2022-09-09T04:44:26;15.90;72.50
11597;DHT22;5854;48.072;16.286;2022-09-09T04:46:53;15.90;71.90
11597;DHT22;5854;48.072;16.286;2022-09-09T04:49:20;15.80;71.20
11597;DHT22;5854;48.072;16.286;2022-09-09T04:51:49;15.70;71.90
11597;DHT22;5854;48.072;16.286;2022-09-09T04:54:16;15.80;72.40
11597;DHT22;5854;48.072;16.286;2022-09-09T04:56:43;15.90;72.90
11597;DHT22;5854;48.072;16.286;2022-09-09T04:59:11;15.90;71.00
11597;DHT22;5854;48.072;16.286;2022-09-09T05:01:38;15.90;71.90
11597;DHT22;5854;48.072;16.286;2022-09-09T05:04:06;15.90;71.00
11597;DHT22;5854;48.072;16.286;2022-09-09T05:06:34;16.00;71.10
11597;DHT22;5854;48.072;16.286;2022-09-09T05:09:01;15.90;71.60
11597;DHT22;5854;48.072;16.286;2022-09-09T05:11:30;15.90;71.20
11597;DHT22;5854;48.072;16.286;2022-09-09T05:13:58;16.00;71.80
11597;DHT22;5854;48.072;16.286;2022-09-09T05:16:26;16.00;71.20
11597;DHT22;5854;48.072;16.286;2022-09-09T05:18:53;16.00;71.40
11597;DHT22;5854;48.072;16.286;2022-09-09T05:21:23;15.90;71.70
11597;DHT22;5854;48.072;16.286;2022-09-09T05:23:52;15.80;73.30
11597;DHT22;5854;48.072;16.286;2022-09-09T05:26:20;15.90;73.80
11597;DHT22;5854;48.072;16.286;2022-09-09T05:28:48;15.90;73.10
11597;DHT22;5854;48.072;16.286;2022-09-09T05:31:16;16.00;71.90
11597;DHT22;5854;48.072;16.286;2022-09-09T05:33:47;16.10;72.10
11597;DHT22;5854;48.072;16.286;2022-09-09T05:36:16;16.30;72.10
11597;DHT22;5854;48.072;16.286;2022-09-09T05:38:44;16.50;70.80
11597;DHT22;5854;48.072;16.286;2022-09-09T05:41:12;16.50;70.20
11597;DHT22;5854;48.072;16.286;2022-09-09T05:43:44;16.60;70.10
11597;DHT22;5854;48.072;16.286;2022-09-09T05:46:13;16.60;70.00
11597;DHT22;5854;48.072;16.286;2022-09-09T05:48:42;16.60;71.30
11597;DHT22;5854;48.072;16.286;2022-09-09T05:51:15;16.70;70.90
11597;DHT22;5854;48.072;16.286;2022-09-09T05:53:44;16.70;71.30
11597;DHT22;5854;48.072;16.286;2022-09-09T05:56:14;16.70;70.80
11597;DHT22;5854;48.072;16.286;2022-09-09T05:58:43;16.90;70.70
11597;DHT22;5854;48.072;16.286;2022-09-09T06:01:14;17.00;69.80
11597;DHT22;5854;48.072;16.286;2022-09-09T06:03:43;17.10;69.60
11597;DHT22;5854;48.072;16.286;2022-09-09T06:06:14;17.20;69.10
11597;DHT22;5854;48.072;16.286;2022-09-09T06:08:43;17.30;68.80
11597;DHT22;5854;48.072;16.286;2022-09-09T06:11:13;17.60;67.90
11597;DHT22;5854;48.072;16.286;2022-09-09T06:13:41;18.00;66.40
11597;DHT22;5854;48.072;16.286;2022-09-09T06:16:10;18.10;64.80
11597;DHT22;5854;48.072;16.286;2022-09-09T06:18:37;18.60;63.10
11597;DHT22;5854;48.072;16.286;2022-09-09T06:21:06;19.50;60.50
11597;DHT22;5854;48.072;16.286;2022-09-09T06:23:36;20.20;58.30
11597;DHT22;5854;48.072;16.286;2022-09-09T06:26:05;20.80;56.10
11597;DHT22;5854;48.072;16.286;2022-09-09T06:28:34;20.80;53.70
11597;DHT22;5854;48.072;16.286;2022-09-09T06:31:03;21.00;52.90
11597;DHT22;5854;48.072;16.286;2022-09-09T06:33:33;20.90;53.00
11597;DHT22;5854;48.072;16.286;2022-09-09T06:36:06;20.60;53.90
11597;DHT22;5854;48.072;16.286;2022-09-09T06:38:33;20.30;55.20
11597;DHT22;5854;48.072;16.286;2022-09-09T06:41:02;20.00;55.30
11597;DHT22;5854;48.072;16.286;2022-09-09T06:43:31;19.70;55.80
11597;DHT22;5854;48.072;16.286;2022-09-09T06:46:00;19.50;56.70
11597;DHT22;5854;48.072;16.286;2022-09-09T06:48:28;19.30;57.30
11597;DHT22;5854;48.072;16.286;2022-09-09T06:51:03;19.10;57.80
11597;DHT22;5854;48.072;16.286;2022-09-09T06:53:31;19.00;58.40
11597;DHT22;5854;48.072;16.286;2022-09-09T06:55:59;19.10;58.80
11597;DHT22;5854;48.072;16.286;2022-09-09T06:58:29;19.20;58.40
11597;DHT22;5854;48.072;16.286;2022-09-09T07:01:02;19.50;57.40
11597;DHT22;5854;48.072;16.286;2022-09-09T07:03:30;20.10;55.20
11597;DHT22;5854;48.072;16.286;2022-09-09T07:05:57;20.70;53.80
11597;DHT22;5854;48.072;16.286;2022-09-09T07:08:25;21.50;52.40
11597;DHT22;5854;48.072;16.286;2022-09-09T07:10:52;22.40;51.20
11597;DHT22;5854;48.072;16.286;2022-09-09T07:13:23;22.80;47.70
11597;DHT22;5854;48.072;16.286;2022-09-09T07:15:51;22.20;48.00
11597;DHT22;5854;48.072;16.286;2022-09-09T07:18:18;21.70;49.40
11597;DHT22;5854;48.072;16.286;2022-09-09T07:20:53;21.80;49.70
11597;DHT22;5854;48.072;16.286;2022-09-09T07:23:22;22.10;49.00
11597;DHT22;5854;48.072;16.286;2022-09-09T07:25:49;21.80;49.50
11597;DHT22;5854;48.072;16.286;2022-09-09T07:28:17;21.30;53.10
11597;DHT22;5854;48.072;16.286;2022-09-09T07:30:53;21.00;53.40
11597;DHT22;5854;48.072;16.286;2022-09-09T07:33:21;20.50;54.30
11597;DHT22;5854;48.072;16.286;2022-09-09T07:35:48;20.10;55.50
11597;DHT22;5854;48.072;16.286;2022-09-09T07:38:15;19.80;56.00
11597;DHT22;5854;48.072;16.286;2022-09-09T07:40:42;19.80;57.20
11597;DHT22;5854;48.072;16.286;2022-09-09T07:43:10;19.90;57.30
11597;DHT22;5854;48.072;16.286;2022-09-09T07:45:37;19.90;57.10
11597;DHT22;5854;48.072;16.286;2022-09-09T07:48:08;19.70;57.30
11597;DHT22;5854;48.072;16.286;2022-09-09T07:50:36;19.60;58.30
11597;DHT22;5854;48.072;16.286;2022-09-09T07:53:04;19.70;57.70
11597;DHT22;5854;48.072;16.286;2022-09-09T07:55:32;19.60;58.00
11597;DHT22;5854;48.072;16.286;2022-09-09T07:57:59;19.60;58.80
11597;DHT22;5854;48.072;16.286;2022-09-09T08:00:26;19.70;59.40
11597;DHT22;5854;48.072;16.286;2022-09-09T08:02:54;19.80;59.80
11597;DHT22;5854;48.072;16.286;2022-09-09T08:05:22;20.00;58.60
11597;DHT22;5854;48.072;16.286;2022-09-09T08:07:49;20.20;57.70
11597;DHT22;5854;48.072;16.286;2022-09-09T08:10:16;20.30;56.40
11597;DHT22;5854;48.072;16.286;2022-09-09T08:12:44;20.30;57.00
11597;DHT22;5854;48.072;16.286;2022-09-09T08:15:11;20.50;57.50
11597;DHT22;5854;48.072;16.286;2022-09-09T08:17:39;20.60;56.60
11597;DHT22;5854;48.072;16.286;2022-09-09T08:20:07;21.00;56.20
11597;DHT22;5854;48.072;16.286;2022-09-09T08:22:36;21.20;55.80
11597;DHT22;5854;48.072;16.286;2022-09-09T08:25:04;21.00;55.30
11597;DHT22;5854;48.072;16.286;2022-09-09T08:27:33;20.90;55.90
11597;DHT22;5854;48.072;16.286;2022-09-09T08:30:00;21.00;56.20
11597;DHT22;5854;48.072;16.286;2022-09-09T08:32:27;21.20;55.40
11597;DHT22;5854;48.072;16.286;2022-09-09T08:34:54;21.30;56.10
11597;DHT22;5854;48.072;16.286;2022-09-09T08:37:21;21.20;54.60
11597;DHT22;5854;48.072;16.286;2022-09-09T08:39:50;21.00;55.10
11597;DHT22;5854;48.072;16.286;2022-09-09T08:42:27;20.90;57.30
11597;DHT22;5854;48.072;16.286;2022-09-09T08:48:16;21.50;54.70
11597;DHT22;5854;48.072;16.286;2022-09-09T08:50:49;21.80;54.00
11597;DHT22;5854;48.072;16.286;2022-09-09T08:53:20;21.90;53.30
11597;DHT22;5854;48.072;16.286;2022-09-09T08:55:52;21.90;53.60
11597;DHT22;5854;48.072;16.286;2022-09-09T08:58:23;22.20;52.90
11597;DHT22;5854;48.072;16.286;2022-09-09T09:01:00;22.40;52.20
11597;DHT22;5854;48.072;16.286;2022-09-09T09:03:41;22.60;52.70
11597;DHT22;5854;48.072;16.286;2022-09-09T09:06:23;22.50;50.40
11597;DHT22;5854;48.072;16.286;2022-09-09T09:09:02;22.40;50.90
11597;DHT22;5854;48.072;16.286;2022-09-09T09:11:38;22.20;50.70
11597;DHT22;5854;48.072;16.286;2022-09-09T09:14:10;22.10;51.20
11597;DHT22;5854;48.072;16.286;2022-09-09T09:16:48;22.00;52.00
11597;DHT22;5854;48.072;16.286;2022-09-09T09:19:18;22.00;51.00
11597;DHT22;5854;48.072;16.286;2022-09-09T09:21:51;22.00;50.80
11597;DHT22;5854;48.072;16.286;2022-09-09T09:24:25;22.10;49.90
11597;DHT22;5854;48.072;16.286;2022-09-09T09:27:00;22.10;50.70
11597;DHT22;5854;48.072;16.286;2022-09-09T09:29:36;22.10;50.10
11597;DHT22;5854;48.072;16.286;2022-09-09T09:32:05;22.10;50.70
11597;DHT22;5854;48.072;16.286;2022-09-09T09:34:34;22.00;50.30
11597;DHT22;5854;48.072;16.286;2022-09-09T09:37:01;22.00;50.40
11597;DHT22;5854;48.072;16.286;2022-09-09T09:39:30;22.10;51.00
11597;DHT22;5854;48.072;16.286;2022-09-09T09:42:10;22.00;50.90
11597;DHT22;5854;48.072;16.286;2022-09-09T09:44:40;22.10;51.30
11597;DHT22;5854;48.072;16.286;2022-09-09T09:47:10;22.20;50.70
11597;DHT22;5854;48.072;16.286;2022-09-09T09:49:38;22.30;51.70
11597;DHT22;5854;48.072;16.286;2022-09-09T09:52:06;22.40;51.80
11597;DHT22;5854;48.072;16.286;2022-09-09T09:54:41;22.40;51.10
11597;DHT22;5854;48.072;16.286;2022-09-09T09:57:11;22.50;50.50
11597;DHT22;5854;48.072;16.286;2022-09-09T09:59:40;22.50;51.90
11597;DHT22;5854;48.072;16.286;2022-09-09T10:02:16;22.50;51.90
11597;DHT22;5854;48.072;16.286;2022-09-09T10:04:45;22.60;49.70
11597;DHT22;5854;48.072;16.286;2022-09-09T10:07:18;22.60;48.30
11597;DHT22;5854;48.072;16.286;2022-09-09T10:09:50;22.60;48.40
11597;DHT22;5854;48.072;16.286;2022-09-09T10:12:30;22.70;49.00
11597;DHT22;5854;48.072;16.286;2022-09-09T10:15:10;22.80;48.10
11597;DHT22;5854;48.072;16.286;2022-09-09T10:17:54;22.70;48.40
11597;DHT22;5854;48.072;16.286;2022-09-09T10:20:35;22.50;49.00
11597;DHT22;5854;48.072;16.286;2022-09-09T10:23:17;22.50;48.60
11597;DHT22;5854;48.072;16.286;2022-09-09T10:26:05;22.40;50.00
11597;DHT22;5854;48.072;16.286;2022-09-09T10:28:54;22.50;48.60
11597;DHT22;5854;48.072;16.286;2022-09-09T10:31:36;22.60;47.10
11597;DHT22;5854;48.072;16.286;2022-09-09T10:34:16;22.70;47.50
11597;DHT22;5854;48.072;16.286;2022-09-09T10:36:50;22.70;46.10
11597;DHT22;5854;48.072;16.286;2022-09-09T10:39:29;22.80;45.90
11597;DHT22;5854;48.072;16.286;2022-09-09T10:42:04;23.10;48.30
11597;DHT22;5854;48.072;16.286;2022-09-09T10:44:48;23.10;45.20
11597;DHT22;5854;48.072;16.286;2022-09-09T10:50:42;23.50;44.40
11597;DHT22;5854;48.072;16.286;2022-09-09T10:53:24;23.70;43.20
11597;DHT22;5854;48.072;16.286;2022-09-09T10:56:03;23.70;44.00
11597;DHT22;5854;48.072;16.286;2022-09-09T10:58:36;23.60;43.10
11597;DHT22;5854;48.072;16.286;2022-09-09T11:01:14;23.50;44.10
11597;DHT22;5854;48.072;16.286;2022-09-09T11:03:46;23.40;44.90
11597;DHT22;5854;48.072;16.286;2022-09-09T11:06:32;23.40;46.40
11597;DHT22;5854;48.072;16.286;2022-09-09T11:09:03;23.40;43.40
11597;DHT22;5854;48.072;16.286;2022-09-09T11:11:34;23.50;42.40
11597;DHT22;5854;48.072;16.286;2022-09-09T11:14:12;23.50;43.00
11597;DHT22;5854;48.072;16.286;2022-09-09T11:16:47;23.70;42.60
11597;DHT22;5854;48.072;16.286;2022-09-09T11:19:24;23.80;42.20
11597;DHT22;5854;48.072;16.286;2022-09-09T11:21:54;23.90;40.10
11597;DHT22;5854;48.072;16.286;2022-09-09T11:24:26;23.90;40.80
11597;DHT22;5854;48.072;16.286;2022-09-09T11:26:58;24.10;40.50
11597;DHT22;5854;48.072;16.286;2022-09-09T11:33:03;24.00;40.20
11597;DHT22;5854;48.072;16.286;2022-09-09T11:36:05;24.30;41.00
11597;DHT22;5854;48.072;16.286;2022-09-09T11:38:44;24.50;38.90
11597;DHT22;5854;48.072;16.286;2022-09-09T11:41:13;24.60;38.80
11597;DHT22;5854;48.072;16.286;2022-09-09T11:43:42;24.50;37.90
11597;DHT22;5854;48.072;16.286;2022-09-09T11:46:11;24.50;39.80
11597;DHT22;5854;48.072;16.286;2022-09-09T11:48:41;24.60;39.40
11597;DHT22;5854;48.072;16.286;2022-09-09T11:51:24;24.50;40.80
11597;DHT22;5854;48.072;16.286;2022-09-09T11:53:52;24.60;40.60
11597;DHT22;5854;48.072;16.286;2022-09-09T11:56:26;24.60;40.20
11597;DHT22;5854;48.072;16.286;2022-09-09T11:58:57;24.70;41.20
11597;DHT22;5854;48.072;16.286;2022-09-09T12:01:36;24.80;39.50
11597;DHT22;5854;48.072;16.286;2022-09-09T12:04:32;24.70;39.10
11597;DHT22;5854;48.072;16.286;2022-09-09T12:07:20;24.70;39.60
11597;DHT22;5854;48.072;16.286;2022-09-09T12:09:54;24.80;39.50
11597;DHT22;5854;48.072;16.286;2022-09-09T12:12:26;24.90;39.90
11597;DHT22;5854;48.072;16.286;2022-09-09T12:14:58;24.80;39.60
11597;DHT22;5854;48.072;16.286;2022-09-09T12:17:37;24.70;39.50
11597;DHT22;5854;48.072;16.286;2022-09-09T12:20:13;24.70;40.70
11597;DHT22;5854;48.072;16.286;2022-09-09T12:23:06;24.60;39.70
11597;DHT22;5854;48.072;16.286;2022-09-09T12:26:03;24.40;40.70
11597;DHT22;5854;48.072;16.286;2022-09-09T12:28:59;24.30;40.30
11597;DHT22;5854;48.072;16.286;2022-09-09T12:31:34;24.30;40.10
11597;DHT22;5854;48.072;16.286;2022-09-09T12:34:12;24.30;40.70
11597;DHT22;5854;48.072;16.286;2022-09-09T12:36:42;24.20;39.80
11597;DHT22;5854;48.072;16.286;2022-09-09T12:39:16;24.20;40.20
11597;DHT22;5854;48.072;16.286;2022-09-09T12:41:51;24.10;40.20
11597;DHT22;5854;48.072;16.286;2022-09-09T12:44:23;24.00;41.80
11597;DHT22;5854;48.072;16.286;2022-09-09T12:46:51;24.00;40.10
11597;DHT22;5854;48.072;16.286;2022-09-09T12:49:29;23.80;39.70
11597;DHT22;5854;48.072;16.286;2022-09-09T12:52:02;23.90;40.50
11597;DHT22;5854;48.072;16.286;2022-09-09T12:54:32;23.90;40.40
11597;DHT22;5854;48.072;16.286;2022-09-09T12:57:00;23.90;41.10
11597;DHT22;5854;48.072;16.286;2022-09-09T12:59:35;23.90;41.40
11597;DHT22;5854;48.072;16.286;2022-09-09T13:02:16;23.90;40.70
11597;DHT22;5854;48.072;16.286;2022-09-09T13:04:46;23.90;41.20
11597;DHT22;5854;48.072;16.286;2022-09-09T13:07:13;23.80;41.50
11597;DHT22;5854;48.072;16.286;2022-09-09T13:09:44;23.80;41.90
11597;DHT22;5854;48.072;16.286;2022-09-09T13:12:15;23.80;42.20
11597;DHT22;5854;48.072;16.286;2022-09-09T13:14:45;23.80;42.70
11597;DHT22;5854;48.072;16.286;2022-09-09T13:17:20;23.70;41.90
11597;DHT22;5854;48.072;16.286;2022-09-09T13:19:50;23.70;42.70
11597;DHT22;5854;48.072;16.286;2022-09-09T13:22:29;23.60;42.70
11597;DHT22;5854;48.072;16.286;2022-09-09T13:25:01;23.60;43.10
11597;DHT22;5854;48.072;16.286;2022-09-09T13:27:32;23.60;44.10
11597;DHT22;5854;48.072;16.286;2022-09-09T13:30:01;23.50;43.90
11597;DHT22;5854;48.072;16.286;2022-09-09T13:32:28;23.50;43.80
11597;DHT22;5854;48.072;16.286;2022-09-09T13:34:58;23.50;44.50
11597;DHT22;5854;48.072;16.286;2022-09-09T13:37:29;23.40;43.40
11597;DHT22;5854;48.072;16.286;2022-09-09T13:40:01;23.40;44.60
11597;DHT22;5854;48.072;16.286;2022-09-09T13:42:30;23.30;44.90
11597;DHT22;5854;48.072;16.286;2022-09-09T13:45:01;23.20;44.60
11597;DHT22;5854;48.072;16.286;2022-09-09T13:47:32;23.10;45.40
11597;DHT22;5854;48.072;16.286;2022-09-09T13:50:17;23.10;45.10
11597;DHT22;5854;48.072;16.286;2022-09-09T13:52:46;23.10;45.00
11597;DHT22;5854;48.072;16.286;2022-09-09T13:55:16;23.00;45.40
11597;DHT22;5854;48.072;16.286;2022-09-09T13:57:50;23.00;45.20
11597;DHT22;5854;48.072;16.286;2022-09-09T14:00:19;22.90;46.40
11597;DHT22;5854;48.072;16.286;2022-09-09T14:02:47;22.90;46.50
11597;DHT22;5854;48.072;16.286;2022-09-09T14:05:15;23.00;45.60
11597;DHT22;5854;48.072;16.286;2022-09-09T14:07:42;23.00;44.90
11597;DHT22;5854;48.072;16.286;2022-09-09T14:10:11;23.00;44.70
11597;DHT22;5854;48.072;16.286;2022-09-09T14:12:39;23.00;45.20
11597;DHT22;5854;48.072;16.286;2022-09-09T14:15:09;23.00;45.60
11597;DHT22;5854;48.072;16.286;2022-09-09T14:17:37;22.90;46.40
11597;DHT22;5854;48.072;16.286;2022-09-09T14:20:06;22.80;47.00
11597;DHT22;5854;48.072;16.286;2022-09-09T14:22:35;22.80;47.70
11597;DHT22;5854;48.072;16.286;2022-09-09T14:25:05;22.80;48.60
11597;DHT22;5854;48.072;16.286;2022-09-09T14:27:33;22.70;48.70
11597;DHT22;5854;48.072;16.286;2022-09-09T14:30:02;22.60;49.20
11597;DHT22;5854;48.072;16.286;2022-09-09T14:32:30;22.50;49.20
11597;DHT22;5854;48.072;16.286;2022-09-09T14:34:57;22.50;49.10
11597;DHT22;5854;48.072;16.286;2022-09-09T14:37:24;22.50;49.70
11597;DHT22;5854;48.072;16.286;2022-09-09T14:39:51;22.40;49.70
11597;DHT22;5854;48.072;16.286;2022-09-09T14:42:20;22.40;49.80
11597;DHT22;5854;48.072;16.286;2022-09-09T14:44:47;22.30;50.10
11597;DHT22;5854;48.072;16.286;2022-09-09T14:47:16;22.20;50.40
11597;DHT22;5854;48.072;16.286;2022-09-09T14:49:43;22.20;50.70
11597;DHT22;5854;48.072;16.286;2022-09-09T14:52:11;22.10;50.80
11597;DHT22;5854;48.072;16.286;2022-09-09T14:54:38;22.00;51.20
11597;DHT22;5854;48.072;16.286;2022-09-09T14:57:05;22.00;51.40
11597;DHT22;5854;48.072;16.286;2022-09-09T14:59:32;22.10;51.50
11597;DHT22;5854;48.072;16.286;2022-09-09T15:01:59;22.00;51.40
11597;DHT22;5854;48.072;16.286;2022-09-09T15:04:31;21.90;51.40
11597;DHT22;5854;48.072;16.286;2022-09-09T15:06:58;21.90;51.90
11597;DHT22;5854;48.072;16.286;2022-09-09T15:09:25;22.00;51.40
11597;DHT22;5854;48.072;16.286;2022-09-09T15:11:52;22.00;51.40
11597;DHT22;5854;48.072;16.286;2022-09-09T15:14:19;22.00;51.50
11597;DHT22;5854;48.072;16.286;2022-09-09T15:16:46;21.90;50.90
11597;DHT22;5854;48.072;16.286;2022-09-09T15:19:13;21.90;51.10
11597;DHT22;5854;48.072;16.286;2022-09-09T15:21:42;21.90;51.40
11597;DHT22;5854;48.072;16.286;2022-09-09T15:24:09;21.80;50.40
11597;DHT22;5854;48.072;16.286;2022-09-09T15:26:37;21.70;50.90
11597;DHT22;5854;48.072;16.286;2022-09-09T15:29:05;21.60;51.50
11597;DHT22;5854;48.072;16.286;2022-09-09T15:31:34;21.60;51.70
11597;DHT22;5854;48.072;16.286;2022-09-09T15:34:03;21.60;51.20
11597;DHT22;5854;48.072;16.286;2022-09-09T15:36:33;21.60;50.20
11597;DHT22;5854;48.072;16.286;2022-09-09T15:39:04;21.50;51.30
11597;DHT22;5854;48.072;16.286;2022-09-09T15:41:32;21.50;51.80
11597;DHT22;5854;48.072;16.286;2022-09-09T15:44:00;21.60;51.80
11597;DHT22;5854;48.072;16.286;2022-09-09T15:46:30;21.60;51.70
11597;DHT22;5854;48.072;16.286;2022-09-09T15:49:02;21.60;51.80
11597;DHT22;5854;48.072;16.286;2022-09-09T15:51:30;21.50;51.30
11597;DHT22;5854;48.072;16.286;2022-09-09T15:53:59;21.50;51.30
11597;DHT22;5854;48.072;16.286;2022-09-09T15:56:28;21.30;51.30
11597;DHT22;5854;48.072;16.286;2022-09-09T15:58:58;21.30;51.50
11597;DHT22;5854;48.072;16.286;2022-09-09T16:01:26;21.20;52.20
11597;DHT22;5854;48.072;16.286;2022-09-09T16:03:53;21.20;52.20
11597;DHT22;5854;48.072;16.286;2022-09-09T16:06:22;21.10;52.90
11597;DHT22;5854;48.072;16.286;2022-09-09T16:08:51;21.00;52.70